sensor_id;sensor_type;location;lat;lon;timestamp;P1;durP1;ratioP1;P2;durP2;ratioP2
79798;SDS011;69283;48.024;11.090;2023-05-23T00:02:21;9.63;;;6.20;;
79798;SDS011;69283;48.024;11.090;2023-05-23T00:04:46;10.90;;;6.80;;
79798;SDS011;69283;48.024;11.090;2023-05-23T00:07:12;9.85;;;6.40;;
79798;SDS011;69283;48.024;11.090;2023-05-23T00:09:37;10.47;;;6.50;;
79798;SDS011;69283;48.024;11.090;2023-05-23T00:12:02;9.18;;;6.38;;
79798;SDS011;69283;48.024;11.090;2023-05-23T00:14:28;11.40;;;6.72;;
79798;SDS011;69283;48.024;11.090;2023-05-23T00:16:58;8.98;;;6.10;;
79798;SDS011;69283;48.024;11.090;2023-05-23T00:19:25;8.18;;;6.40;;
79798;SDS011;69283;48.024;11.090;2023-05-23T00:21:50;9.88;;;7.05;;
79798;SDS011;69283;48.024;11.090;2023-05-23T00:24:17;10.18;;;6.00;;
79798;SDS011;69283;48.024;11.090;2023-05-23T00:26:44;9.55;;;6.95;;
79798;SDS011;69283;48.024;11.090;2023-05-23T00:29:10;7.78;;;5.70;;
79798;SDS011;69283;48.024;11.090;2023-05-23T00:31:40;11.63;;;6.78;;
79798;SDS011;69283;48.024;11.090;2023-05-23T00:34:14;12.00;;;6.80;;
79798;SDS011;69283;48.024;11.090;2023-05-23T00:36:41;9.77;;;6.75;;
79798;SDS011;69283;48.024;11.090;2023-05-23T00:39:07;10.63;;;6.97;;
79798;SDS011;69283;48.024;11.090;2023-05-23T00:41:33;13.40;;;7.05;;
79798;SDS011;69283;48.024;11.090;2023-05-23T00:44:00;9.85;;;6.60;;
79798;SDS011;69283;48.024;11.090;2023-05-23T00:46:25;10.93;;;6.53;;
79798;SDS011;69283;48.024;11.090;2023-05-23T00:48:52;14.27;;;7.68;;
79798;SDS011;69283;48.024;11.090;2023-05-23T00:51:19;11.07;;;8.02;;
79798;SDS011;69283;48.024;11.090;2023-05-23T00:53:44;10.18;;;6.95;;
79798;SDS011;69283;48.024;11.090;2023-05-23T00:56:10;10.40;;;7.57;;
79798;SDS011;69283;48.024;11.090;2023-05-23T00:58:36;10.10;;;7.35;;
79798;SDS011;69283;48.024;11.090;2023-05-23T01:01:02;10.82;;;7.30;;
79798;SDS011;69283;48.024;11.090;2023-05-23T01:03:27;10.90;;;7.65;;
79798;SDS011;69283;48.024;11.090;2023-05-23T01:05:54;12.02;;;7.18;;
79798;SDS011;69283;48.024;11.090;2023-05-23T01:08:20;9.75;;;6.72;;
79798;SDS011;69283;48.024;11.090;2023-05-23T01:10:46;10.90;;;7.30;;
79798;SDS011;69283;48.024;11.090;2023-05-23T01:13:23;10.10;;;6.90;;
79798;SDS011;69283;48.024;11.090;2023-05-23T01:16:06;10.15;;;7.15;;
79798;SDS011;69283;48.024;11.090;2023-05-23T01:21:49;10.30;;;6.82;;
79798;SDS011;69283;48.024;11.090;2023-05-23T01:24:25;10.93;;;7.22;;
79798;SDS011;69283;48.024;11.090;2023-05-23T01:27:22;10.48;;;7.72;;
79798;SDS011;69283;48.024;11.090;2023-05-23T01:29:48;8.93;;;6.60;;
79798;SDS011;69283;48.024;11.090;2023-05-23T01:32:20;10.90;;;7.28;;
79798;SDS011;69283;48.024;11.090;2023-05-23T01:34:47;10.57;;;7.22;;
79798;SDS011;69283;48.024;11.090;2023-05-23T01:37:13;9.73;;;6.97;;
79798;SDS011;69283;48.024;11.090;2023-05-23T01:39:42;13.27;;;8.10;;
79798;SDS011;69283;48.024;11.090;2023-05-23T01:42:07;11.65;;;7.80;;
79798;SDS011;69283;48.024;11.090;2023-05-23T01:44:33;12.55;;;7.95;;
79798;SDS011;69283;48.024;11.090;2023-05-23T01:47:00;12.27;;;8.35;;
79798;SDS011;69283;48.024;11.090;2023-05-23T01:49:27;10.57;;;7.45;;
79798;SDS011;69283;48.024;11.090;2023-05-23T01:51:55;10.02;;;7.68;;
79798;SDS011;69283;48.024;11.090;2023-05-23T01:54:20;10.95;;;6.88;;
79798;SDS011;69283;48.024;11.090;2023-05-23T01:56:46;11.73;;;7.88;;
79798;SDS011;69283;48.024;11.090;2023-05-23T01:59:12;11.18;;;6.93;;
79798;SDS011;69283;48.024;11.090;2023-05-23T02:01:37;9.43;;;6.50;;
79798;SDS011;69283;48.024;11.090;2023-05-23T02:04:03;11.20;;;7.28;;
79798;SDS011;69283;48.024;11.090;2023-05-23T02:06:28;10.80;;;7.13;;
79798;SDS011;69283;48.024;11.090;2023-05-23T02:08:55;10.10;;;7.28;;
79798;SDS011;69283;48.024;11.090;2023-05-23T02:11:20;10.67;;;6.57;;
79798;SDS011;69283;48.024;11.090;2023-05-23T02:13:46;13.40;;;7.95;;
79798;SDS011;69283;48.024;11.090;2023-05-23T02:16:11;13.88;;;8.30;;
79798;SDS011;69283;48.024;11.090;2023-05-23T02:18:37;9.68;;;6.88;;
79798;SDS011;69283;48.024;11.090;2023-05-23T02:21:04;11.70;;;7.07;;
79798;SDS011;69283;48.024;11.090;2023-05-23T02:23:29;11.73;;;8.70;;
79798;SDS011;69283;48.024;11.090;2023-05-23T02:25:55;11.98;;;8.02;;
79798;SDS011;69283;48.024;11.090;2023-05-23T02:28:20;11.85;;;7.97;;
79798;SDS011;69283;48.024;11.090;2023-05-23T02:30:45;10.60;;;7.47;;
79798;SDS011;69283;48.024;11.090;2023-05-23T02:33:11;9.32;;;7.32;;
79798;SDS011;69283;48.024;11.090;2023-05-23T02:35:36;12.65;;;7.75;;
79798;SDS011;69283;48.024;11.090;2023-05-23T02:38:01;11.43;;;7.33;;
79798;SDS011;69283;48.024;11.090;2023-05-23T02:40:27;10.80;;;7.63;;
79798;SDS011;69283;48.024;11.090;2023-05-23T02:42:52;12.90;;;7.78;;
79798;SDS011;69283;48.024;11.090;2023-05-23T02:45:21;11.93;;;7.53;;
79798;SDS011;69283;48.024;11.090;2023-05-23T02:47:46;14.52;;;8.77;;
79798;SDS011;69283;48.024;11.090;2023-05-23T02:50:11;12.57;;;8.33;;
79798;SDS011;69283;48.024;11.090;2023-05-23T02:52:36;11.80;;;7.93;;
79798;SDS011;69283;48.024;11.090;2023-05-23T02:55:02;12.07;;;8.67;;
79798;SDS011;69283;48.024;11.090;2023-05-23T02:57:27;11.07;;;7.32;;
79798;SDS011;69283;48.024;11.090;2023-05-23T02:59:53;13.15;;;7.93;;
79798;SDS011;69283;48.024;11.090;2023-05-23T03:02:18;9.77;;;7.15;;
79798;SDS011;69283;48.024;11.090;2023-05-23T03:04:44;12.53;;;9.00;;
79798;SDS011;69283;48.024;11.090;2023-05-23T03:07:09;13.27;;;8.37;;
79798;SDS011;69283;48.024;11.090;2023-05-23T03:09:36;13.00;;;8.57;;
79798;SDS011;69283;48.024;11.090;2023-05-23T03:12:01;10.98;;;8.25;;
79798;SDS011;69283;48.024;11.090;2023-05-23T03:14:26;12.07;;;7.90;;
79798;SDS011;69283;48.024;11.090;2023-05-23T03:16:52;14.30;;;8.75;;
79798;SDS011;69283;48.024;11.090;2023-05-23T03:19:17;13.00;;;8.37;;
79798;SDS011;69283;48.024;11.090;2023-05-23T03:21:42;12.63;;;8.30;;
79798;SDS011;69283;48.024;11.090;2023-05-23T03:24:08;13.68;;;8.57;;
79798;SDS011;69283;48.024;11.090;2023-05-23T03:26:33;13.90;;;8.30;;
79798;SDS011;69283;48.024;11.090;2023-05-23T03:28:58;13.73;;;8.60;;
79798;SDS011;69283;48.024;11.090;2023-05-23T03:31:23;14.90;;;8.93;;
79798;SDS011;69283;48.024;11.090;2023-05-23T03:33:49;15.03;;;8.93;;
79798;SDS011;69283;48.024;11.090;2023-05-23T03:36:14;15.52;;;10.23;;
79798;SDS011;69283;48.024;11.090;2023-05-23T03:38:40;15.85;;;9.65;;
79798;SDS011;69283;48.024;11.090;2023-05-23T03:41:06;16.38;;;10.30;;
79798;SDS011;69283;48.024;11.090;2023-05-23T03:43:31;15.43;;;9.63;;
79798;SDS011;69283;48.024;11.090;2023-05-23T03:45:57;14.70;;;9.85;;
79798;SDS011;69283;48.024;11.090;2023-05-23T03:48:22;14.43;;;10.27;;
79798;SDS011;69283;48.024;11.090;2023-05-23T03:50:48;14.00;;;10.00;;
79798;SDS011;69283;48.024;11.090;2023-05-23T03:53:13;16.03;;;10.27;;
79798;SDS011;69283;48.024;11.090;2023-05-23T03:55:38;16.25;;;10.50;;
79798;SDS011;69283;48.024;11.090;2023-05-23T03:58:03;14.13;;;9.38;;
79798;SDS011;69283;48.024;11.090;2023-05-23T04:00:29;17.63;;;10.50;;
79798;SDS011;69283;48.024;11.090;2023-05-23T04:02:54;15.55;;;10.50;;
79798;SDS011;69283;48.024;11.090;2023-05-23T04:05:21;14.32;;;9.32;;
79798;SDS011;69283;48.024;11.090;2023-05-23T04:07:48;16.63;;;11.23;;
79798;SDS011;69283;48.024;11.090;2023-05-23T04:10:14;15.10;;;10.20;;
79798;SDS011;69283;48.024;11.090;2023-05-23T04:12:39;15.20;;;9.70;;
79798;SDS011;69283;48.024;11.090;2023-05-23T04:15:05;18.02;;;12.07;;
79798;SDS011;69283;48.024;11.090;2023-05-23T04:17:31;17.42;;;11.82;;
79798;SDS011;69283;48.024;11.090;2023-05-23T04:19:57;16.67;;;9.77;;
79798;SDS011;69283;48.024;11.090;2023-05-23T04:22:22;18.08;;;10.63;;
79798;SDS011;69283;48.024;11.090;2023-05-23T04:24:47;15.97;;;10.93;;
79798;SDS011;69283;48.024;11.090;2023-05-23T04:27:13;19.67;;;11.03;;
79798;SDS011;69283;48.024;11.090;2023-05-23T04:29:38;19.02;;;11.07;;
79798;SDS011;69283;48.024;11.090;2023-05-23T04:32:04;18.05;;;10.40;;
79798;SDS011;69283;48.024;11.090;2023-05-23T04:34:30;16.30;;;11.75;;
79798;SDS011;69283;48.024;11.090;2023-05-23T04:37:00;19.33;;;9.90;;
79798;SDS011;69283;48.024;11.090;2023-05-23T04:39:26;19.20;;;10.07;;
79798;SDS011;69283;48.024;11.090;2023-05-23T04:41:52;17.98;;;11.18;;
79798;SDS011;69283;48.024;11.090;2023-05-23T04:44:18;18.83;;;10.82;;
79798;SDS011;69283;48.024;11.090;2023-05-23T04:46:44;17.33;;;9.75;;
79798;SDS011;69283;48.024;11.090;2023-05-23T04:49:10;16.88;;;10.32;;
79798;SDS011;69283;48.024;11.090;2023-05-23T04:51:36;13.90;;;9.48;;
79798;SDS011;69283;48.024;11.090;2023-05-23T04:54:02;16.27;;;11.10;;
79798;SDS011;69283;48.024;11.090;2023-05-23T04:56:28;16.52;;;10.45;;
79798;SDS011;69283;48.024;11.090;2023-05-23T04:58:53;54.42;;;31.75;;
79798;SDS011;69283;48.024;11.090;2023-05-23T05:01:18;18.63;;;11.48;;
79798;SDS011;69283;48.024;11.090;2023-05-23T05:03:44;17.33;;;11.07;;
79798;SDS011;69283;48.024;11.090;2023-05-23T05:06:09;14.23;;;10.00;;
79798;SDS011;69283;48.024;11.090;2023-05-23T05:08:35;15.35;;;9.73;;
79798;SDS011;69283;48.024;11.090;2023-05-23T05:11:00;16.73;;;9.75;;
79798;SDS011;69283;48.024;11.090;2023-05-23T05:13:26;14.10;;;9.65;;
79798;SDS011;69283;48.024;11.090;2023-05-23T05:15:51;14.43;;;9.93;;
79798;SDS011;69283;48.024;11.090;2023-05-23T05:18:16;15.88;;;9.93;;
79798;SDS011;69283;48.024;11.090;2023-05-23T05:20:42;15.60;;;9.95;;
79798;SDS011;69283;48.024;11.090;2023-05-23T05:23:07;16.93;;;10.00;;
79798;SDS011;69283;48.024;11.090;2023-05-23T05:25:33;14.07;;;9.30;;
79798;SDS011;69283;48.024;11.090;2023-05-23T05:28:00;19.20;;;10.32;;
79798;SDS011;69283;48.024;11.090;2023-05-23T05:30:29;15.27;;;10.25;;
79798;SDS011;69283;48.024;11.090;2023-05-23T05:32:57;16.95;;;10.18;;
79798;SDS011;69283;48.024;11.090;2023-05-23T05:35:23;15.27;;;10.63;;
79798;SDS011;69283;48.024;11.090;2023-05-23T05:37:48;22.27;;;14.27;;
79798;SDS011;69283;48.024;11.090;2023-05-23T05:40:14;27.93;;;16.87;;
79798;SDS011;69283;48.024;11.090;2023-05-23T05:42:39;17.83;;;13.32;;
79798;SDS011;69283;48.024;11.090;2023-05-23T05:45:04;16.97;;;12.23;;
79798;SDS011;69283;48.024;11.090;2023-05-23T05:47:30;33.30;;;21.92;;
79798;SDS011;69283;48.024;11.090;2023-05-23T05:49:56;19.50;;;12.73;;
79798;SDS011;69283;48.024;11.090;2023-05-23T05:52:21;20.40;;;11.90;;
79798;SDS011;69283;48.024;11.090;2023-05-23T05:54:46;16.58;;;10.93;;
79798;SDS011;69283;48.024;11.090;2023-05-23T05:57:11;17.55;;;10.05;;
79798;SDS011;69283;48.024;11.090;2023-05-23T05:59:37;17.00;;;11.33;;
79798;SDS011;69283;48.024;11.090;2023-05-23T06:02:02;17.00;;;11.70;;
79798;SDS011;69283;48.024;11.090;2023-05-23T06:04:27;17.17;;;11.23;;
79798;SDS011;69283;48.024;11.090;2023-05-23T06:06:53;18.40;;;10.90;;
79798;SDS011;69283;48.024;11.090;2023-05-23T06:09:18;17.57;;;11.00;;
79798;SDS011;69283;48.024;11.090;2023-05-23T06:11:43;18.98;;;12.00;;
79798;SDS011;69283;48.024;11.090;2023-05-23T06:14:09;16.60;;;10.10;;
79798;SDS011;69283;48.024;11.090;2023-05-23T06:16:34;18.27;;;11.67;;
79798;SDS011;69283;48.024;11.090;2023-05-23T06:18:59;17.30;;;10.93;;
79798;SDS011;69283;48.024;11.090;2023-05-23T06:21:24;18.88;;;11.43;;
79798;SDS011;69283;48.024;11.090;2023-05-23T06:23:50;17.08;;;10.88;;
79798;SDS011;69283;48.024;11.090;2023-05-23T06:26:16;15.13;;;10.27;;
79798;SDS011;69283;48.024;11.090;2023-05-23T06:28:41;18.05;;;11.52;;
79798;SDS011;69283;48.024;11.090;2023-05-23T06:31:07;18.13;;;11.63;;
79798;SDS011;69283;48.024;11.090;2023-05-23T06:33:35;17.70;;;11.68;;
79798;SDS011;69283;48.024;11.090;2023-05-23T06:36:00;21.35;;;13.55;;
79798;SDS011;69283;48.024;11.090;2023-05-23T06:38:28;22.52;;;14.18;;
79798;SDS011;69283;48.024;11.090;2023-05-23T06:40:55;27.00;;;13.88;;
79798;SDS011;69283;48.024;11.090;2023-05-23T06:43:20;23.45;;;13.65;;
79798;SDS011;69283;48.024;11.090;2023-05-23T06:45:45;25.30;;;13.00;;
79798;SDS011;69283;48.024;11.090;2023-05-23T06:48:14;21.67;;;12.40;;
79798;SDS011;69283;48.024;11.090;2023-05-23T06:50:39;22.27;;;13.88;;
79798;SDS011;69283;48.024;11.090;2023-05-23T06:53:05;21.48;;;14.02;;
79798;SDS011;69283;48.024;11.090;2023-05-23T06:55:30;19.92;;;12.95;;
79798;SDS011;69283;48.024;11.090;2023-05-23T06:57:57;25.60;;;15.02;;
79798;SDS011;69283;48.024;11.090;2023-05-23T07:00:28;23.08;;;13.13;;
79798;SDS011;69283;48.024;11.090;2023-05-23T07:02:53;24.55;;;14.32;;
79798;SDS011;69283;48.024;11.090;2023-05-23T07:05:19;20.45;;;13.25;;
79798;SDS011;69283;48.024;11.090;2023-05-23T07:07:45;25.55;;;14.07;;
79798;SDS011;69283;48.024;11.090;2023-05-23T07:10:11;27.77;;;16.75;;
79798;SDS011;69283;48.024;11.090;2023-05-23T07:12:37;24.83;;;15.10;;
79798;SDS011;69283;48.024;11.090;2023-05-23T07:15:02;23.10;;;15.05;;
79798;SDS011;69283;48.024;11.090;2023-05-23T07:17:28;24.80;;;14.45;;
79798;SDS011;69283;48.024;11.090;2023-05-23T07:19:54;31.17;;;15.88;;
79798;SDS011;69283;48.024;11.090;2023-05-23T07:22:19;24.10;;;15.02;;
79798;SDS011;69283;48.024;11.090;2023-05-23T07:24:45;25.23;;;15.20;;
79798;SDS011;69283;48.024;11.090;2023-05-23T07:27:10;26.75;;;15.73;;
79798;SDS011;69283;48.024;11.090;2023-05-23T07:29:35;30.73;;;16.52;;
79798;SDS011;69283;48.024;11.090;2023-05-23T07:32:01;24.47;;;15.30;;
79798;SDS011;69283;48.024;11.090;2023-05-23T07:34:26;24.90;;;15.63;;
79798;SDS011;69283;48.024;11.090;2023-05-23T07:36:52;23.98;;;14.88;;
79798;SDS011;69283;48.024;11.090;2023-05-23T07:39:17;25.75;;;15.57;;
79798;SDS011;69283;48.024;11.090;2023-05-23T07:41:46;23.92;;;15.63;;
79798;SDS011;69283;48.024;11.090;2023-05-23T07:44:14;23.92;;;13.98;;
79798;SDS011;69283;48.024;11.090;2023-05-23T07:46:39;24.63;;;14.57;;
79798;SDS011;69283;48.024;11.090;2023-05-23T07:49:04;22.43;;;13.33;;
79798;SDS011;69283;48.024;11.090;2023-05-23T07:51:30;21.85;;;14.05;;
79798;SDS011;69283;48.024;11.090;2023-05-23T07:53:55;22.52;;;14.20;;
79798;SDS011;69283;48.024;11.090;2023-05-23T07:56:20;22.70;;;14.37;;
79798;SDS011;69283;48.024;11.090;2023-05-23T07:58:47;28.60;;;15.02;;
79798;SDS011;69283;48.024;11.090;2023-05-23T08:01:12;23.45;;;14.43;;
79798;SDS011;69283;48.024;11.090;2023-05-23T08:03:38;26.77;;;16.48;;
79798;SDS011;69283;48.024;11.090;2023-05-23T08:06:03;28.30;;;15.73;;
79798;SDS011;69283;48.024;11.090;2023-05-23T08:08:28;28.48;;;15.65;;
79798;SDS011;69283;48.024;11.090;2023-05-23T08:10:53;26.63;;;14.70;;
79798;SDS011;69283;48.024;11.090;2023-05-23T08:13:19;27.00;;;16.13;;
79798;SDS011;69283;48.024;11.090;2023-05-23T08:15:44;26.37;;;16.17;;
79798;SDS011;69283;48.024;11.090;2023-05-23T08:18:09;25.03;;;14.60;;
79798;SDS011;69283;48.024;11.090;2023-05-23T08:20:35;22.95;;;13.75;;
79798;SDS011;69283;48.024;11.090;2023-05-23T08:23:00;26.60;;;14.38;;
79798;SDS011;69283;48.024;11.090;2023-05-23T08:25:26;23.77;;;15.18;;
79798;SDS011;69283;48.024;11.090;2023-05-23T08:27:56;28.10;;;15.27;;
79798;SDS011;69283;48.024;11.090;2023-05-23T08:30:23;19.95;;;13.50;;
79798;SDS011;69283;48.024;11.090;2023-05-23T08:32:50;24.85;;;14.18;;
79798;SDS011;69283;48.024;11.090;2023-05-23T08:35:16;21.55;;;13.82;;
79798;SDS011;69283;48.024;11.090;2023-05-23T08:37:41;23.60;;;14.03;;
79798;SDS011;69283;48.024;11.090;2023-05-23T08:40:10;24.75;;;13.35;;
79798;SDS011;69283;48.024;11.090;2023-05-23T08:42:38;23.92;;;14.07;;
79798;SDS011;69283;48.024;11.090;2023-05-23T08:45:04;23.60;;;14.13;;
79798;SDS011;69283;48.024;11.090;2023-05-23T08:47:30;20.45;;;13.52;;
79798;SDS011;69283;48.024;11.090;2023-05-23T08:50:00;22.88;;;13.80;;
79798;SDS011;69283;48.024;11.090;2023-05-23T08:52:26;23.00;;;14.30;;
79798;SDS011;69283;48.024;11.090;2023-05-23T08:54:54;27.70;;;14.32;;
79798;SDS011;69283;48.024;11.090;2023-05-23T08:57:20;24.20;;;14.75;;
79798;SDS011;69283;48.024;11.090;2023-05-23T08:59:46;31.02;;;16.30;;
79798;SDS011;69283;48.024;11.090;2023-05-23T09:02:13;23.75;;;15.25;;
79798;SDS011;69283;48.024;11.090;2023-05-23T09:04:38;22.52;;;13.73;;
79798;SDS011;69283;48.024;11.090;2023-05-23T09:07:04;25.17;;;14.63;;
79798;SDS011;69283;48.024;11.090;2023-05-23T09:09:30;29.98;;;15.63;;
79798;SDS011;69283;48.024;11.090;2023-05-23T09:11:56;23.50;;;15.10;;
79798;SDS011;69283;48.024;11.090;2023-05-23T09:14:23;24.08;;;14.60;;
79798;SDS011;69283;48.024;11.090;2023-05-23T09:16:48;20.90;;;13.27;;
79798;SDS011;69283;48.024;11.090;2023-05-23T09:19:14;21.85;;;13.25;;
79798;SDS011;69283;48.024;11.090;2023-05-23T09:21:43;21.90;;;14.13;;
79798;SDS011;69283;48.024;11.090;2023-05-23T09:24:09;22.45;;;13.77;;
79798;SDS011;69283;48.024;11.090;2023-05-23T09:26:36;26.13;;;15.13;;
79798;SDS011;69283;48.024;11.090;2023-05-23T09:29:04;24.75;;;14.35;;
79798;SDS011;69283;48.024;11.090;2023-05-23T09:31:30;24.00;;;14.50;;
79798;SDS011;69283;48.024;11.090;2023-05-23T09:33:56;25.95;;;15.77;;
79798;SDS011;69283;48.024;11.090;2023-05-23T09:36:23;25.65;;;14.25;;
79798;SDS011;69283;48.024;11.090;2023-05-23T09:38:53;23.13;;;15.00;;
79798;SDS011;69283;48.024;11.090;2023-05-23T09:41:21;21.65;;;14.07;;
79798;SDS011;69283;48.024;11.090;2023-05-23T09:43:50;22.13;;;14.95;;
79798;SDS011;69283;48.024;11.090;2023-05-23T09:46:16;25.00;;;14.93;;
79798;SDS011;69283;48.024;11.090;2023-05-23T09:48:46;26.23;;;16.17;;
79798;SDS011;69283;48.024;11.090;2023-05-23T09:51:12;23.77;;;14.73;;
79798;SDS011;69283;48.024;11.090;2023-05-23T09:53:38;22.90;;;14.65;;
79798;SDS011;69283;48.024;11.090;2023-05-23T09:56:03;26.13;;;15.90;;
79798;SDS011;69283;48.024;11.090;2023-05-23T09:58:29;24.73;;;16.05;;
79798;SDS011;69283;48.024;11.090;2023-05-23T10:00:57;22.75;;;14.40;;
79798;SDS011;69283;48.024;11.090;2023-05-23T10:03:32;26.13;;;15.57;;
79798;SDS011;69283;48.024;11.090;2023-05-23T10:06:06;28.35;;;16.05;;
79798;SDS011;69283;48.024;11.090;2023-05-23T10:13:42;32.17;;;16.42;;
79798;SDS011;69283;48.024;11.090;2023-05-23T10:16:18;27.00;;;17.02;;
79798;SDS011;69283;48.024;11.090;2023-05-23T10:18:47;26.17;;;16.25;;
79798;SDS011;69283;48.024;11.090;2023-05-23T10:21:18;30.90;;;16.67;;
79798;SDS011;69283;48.024;11.090;2023-05-23T10:23:48;28.33;;;17.02;;
79798;SDS011;69283;48.024;11.090;2023-05-23T10:26:14;29.95;;;17.23;;
79798;SDS011;69283;48.024;11.090;2023-05-23T10:28:40;26.65;;;17.27;;
79798;SDS011;69283;48.024;11.090;2023-05-23T10:31:06;28.20;;;16.60;;
79798;SDS011;69283;48.024;11.090;2023-05-23T10:33:33;30.58;;;16.60;;
79798;SDS011;69283;48.024;11.090;2023-05-23T10:36:18;27.90;;;17.48;;
79798;SDS011;69283;48.024;11.090;2023-05-23T10:38:50;25.73;;;16.13;;
79798;SDS011;69283;48.024;11.090;2023-05-23T10:41:49;24.60;;;15.30;;
79798;SDS011;69283;48.024;11.090;2023-05-23T10:44:22;26.20;;;16.25;;
79798;SDS011;69283;48.024;11.090;2023-05-23T10:49:18;26.65;;;16.13;;
79798;SDS011;69283;48.024;11.090;2023-05-23T10:51:45;25.80;;;15.05;;
79798;SDS011;69283;48.024;11.090;2023-05-23T10:54:13;22.40;;;13.93;;
79798;SDS011;69283;48.024;11.090;2023-05-23T10:56:39;22.10;;;13.63;;
79798;SDS011;69283;48.024;11.090;2023-05-23T10:59:04;24.42;;;13.68;;
79798;SDS011;69283;48.024;11.090;2023-05-23T11:01:30;25.88;;;15.32;;
79798;SDS011;69283;48.024;11.090;2023-05-23T11:03:56;23.50;;;14.93;;
79798;SDS011;69283;48.024;11.090;2023-05-23T11:12:08;23.33;;;14.38;;
79798;SDS011;69283;48.024;11.090;2023-05-23T11:19:36;23.70;;;14.00;;
79798;SDS011;69283;48.024;11.090;2023-05-23T11:22:02;21.80;;;13.13;;
79798;SDS011;69283;48.024;11.090;2023-05-23T11:24:48;21.70;;;12.82;;
79798;SDS011;69283;48.024;11.090;2023-05-23T11:27:15;20.38;;;12.88;;
79798;SDS011;69283;48.024;11.090;2023-05-23T11:29:44;20.10;;;12.48;;
79798;SDS011;69283;48.024;11.090;2023-05-23T11:32:20;18.77;;;11.63;;
79798;SDS011;69283;48.024;11.090;2023-05-23T11:34:45;21.40;;;11.93;;
79798;SDS011;69283;48.024;11.090;2023-05-23T11:37:10;19.55;;;12.43;;
79798;SDS011;69283;48.024;11.090;2023-05-23T11:39:36;18.70;;;12.25;;
79798;SDS011;69283;48.024;11.090;2023-05-23T11:42:02;20.03;;;12.90;;
79798;SDS011;69283;48.024;11.090;2023-05-23T11:44:28;18.33;;;12.32;;
79798;SDS011;69283;48.024;11.090;2023-05-23T11:47:02;17.75;;;11.45;;
79798;SDS011;69283;48.024;11.090;2023-05-23T11:49:29;17.73;;;12.30;;
79798;SDS011;69283;48.024;11.090;2023-05-23T11:51:56;17.77;;;11.68;;
79798;SDS011;69283;48.024;11.090;2023-05-23T11:54:24;16.50;;;10.73;;
79798;SDS011;69283;48.024;11.090;2023-05-23T11:56:51;16.05;;;10.80;;
79798;SDS011;69283;48.024;11.090;2023-05-23T11:59:17;16.02;;;11.40;;
79798;SDS011;69283;48.024;11.090;2023-05-23T12:01:42;20.67;;;10.65;;
79798;SDS011;69283;48.024;11.090;2023-05-23T12:04:08;15.95;;;11.07;;
79798;SDS011;69283;48.024;11.090;2023-05-23T12:06:36;14.75;;;10.65;;
79798;SDS011;69283;48.024;11.090;2023-05-23T12:09:03;17.17;;;10.82;;
79798;SDS011;69283;48.024;11.090;2023-05-23T12:11:35;16.33;;;10.35;;
79798;SDS011;69283;48.024;11.090;2023-05-23T12:14:00;17.30;;;10.60;;
79798;SDS011;69283;48.024;11.090;2023-05-23T12:16:30;16.90;;;9.40;;
79798;SDS011;69283;48.024;11.090;2023-05-23T12:18:56;18.17;;;10.60;;
79798;SDS011;69283;48.024;11.090;2023-05-23T12:21:24;14.63;;;10.02;;
79798;SDS011;69283;48.024;11.090;2023-05-23T12:23:50;18.20;;;10.90;;
79798;SDS011;69283;48.024;11.090;2023-05-23T12:26:15;19.40;;;11.83;;
79798;SDS011;69283;48.024;11.090;2023-05-23T12:28:42;16.40;;;11.23;;
79798;SDS011;69283;48.024;11.090;2023-05-23T12:31:10;19.67;;;11.25;;
79798;SDS011;69283;48.024;11.090;2023-05-23T12:33:44;18.85;;;11.15;;
79798;SDS011;69283;48.024;11.090;2023-05-23T12:36:12;15.55;;;10.95;;
79798;SDS011;69283;48.024;11.090;2023-05-23T12:38:38;16.50;;;10.48;;
79798;SDS011;69283;48.024;11.090;2023-05-23T12:41:11;16.42;;;10.30;;
79798;SDS011;69283;48.024;11.090;2023-05-23T12:43:37;18.70;;;11.60;;
79798;SDS011;69283;48.024;11.090;2023-05-23T12:46:03;16.17;;;10.57;;
79798;SDS011;69283;48.024;11.090;2023-05-23T12:48:30;14.00;;;10.05;;
79798;SDS011;69283;48.024;11.090;2023-05-23T12:50:55;14.13;;;8.75;;
79798;SDS011;69283;48.024;11.090;2023-05-23T12:53:21;11.82;;;8.05;;
79798;SDS011;69283;48.024;11.090;2023-05-23T12:55:46;16.08;;;9.55;;
79798;SDS011;69283;48.024;11.090;2023-05-23T12:58:11;18.03;;;11.13;;
79798;SDS011;69283;48.024;11.090;2023-05-23T13:00:37;11.33;;;8.10;;
79798;SDS011;69283;48.024;11.090;2023-05-23T13:03:02;14.37;;;8.87;;
79798;SDS011;69283;48.024;11.090;2023-05-23T13:05:27;15.00;;;9.07;;
79798;SDS011;69283;48.024;11.090;2023-05-23T13:07:53;12.07;;;8.70;;
79798;SDS011;69283;48.024;11.090;2023-05-23T13:10:19;15.00;;;8.13;;
79798;SDS011;69283;48.024;11.090;2023-05-23T13:12:44;12.53;;;8.40;;
79798;SDS011;69283;48.024;11.090;2023-05-23T13:15:10;15.10;;;10.40;;
79798;SDS011;69283;48.024;11.090;2023-05-23T13:17:35;14.23;;;8.98;;
79798;SDS011;69283;48.024;11.090;2023-05-23T13:20:01;14.50;;;10.20;;
79798;SDS011;69283;48.024;11.090;2023-05-23T13:22:28;13.95;;;9.10;;
79798;SDS011;69283;48.024;11.090;2023-05-23T13:24:54;16.67;;;9.10;;
79798;SDS011;69283;48.024;11.090;2023-05-23T13:27:19;15.23;;;9.60;;
79798;SDS011;69283;48.024;11.090;2023-05-23T13:29:45;17.65;;;9.27;;
79798;SDS011;69283;48.024;11.090;2023-05-23T13:32:10;16.90;;;8.95;;
79798;SDS011;69283;48.024;11.090;2023-05-23T13:34:36;13.27;;;8.80;;
79798;SDS011;69283;48.024;11.090;2023-05-23T13:37:01;14.88;;;9.07;;
79798;SDS011;69283;48.024;11.090;2023-05-23T13:39:27;14.15;;;9.50;;
79798;SDS011;69283;48.024;11.090;2023-05-23T13:41:52;14.80;;;9.13;;
79798;SDS011;69283;48.024;11.090;2023-05-23T13:44:17;14.85;;;9.80;;
79798;SDS011;69283;48.024;11.090;2023-05-23T13:46:43;13.80;;;9.10;;
79798;SDS011;69283;48.024;11.090;2023-05-23T13:49:08;15.98;;;10.02;;
79798;SDS011;69283;48.024;11.090;2023-05-23T13:51:33;14.23;;;9.55;;
79798;SDS011;69283;48.024;11.090;2023-05-23T13:54:01;12.88;;;8.98;;
79798;SDS011;69283;48.024;11.090;2023-05-23T13:56:26;16.63;;;10.50;;
79798;SDS011;69283;48.024;11.090;2023-05-23T13:58:51;18.03;;;12.20;;
79798;SDS011;69283;48.024;11.090;2023-05-23T14:01:17;19.17;;;10.48;;
79798;SDS011;69283;48.024;11.090;2023-05-23T14:03:42;15.77;;;10.68;;
79798;SDS011;69283;48.024;11.090;2023-05-23T14:06:07;16.07;;;10.37;;
79798;SDS011;69283;48.024;11.090;2023-05-23T14:08:33;17.83;;;10.37;;
79798;SDS011;69283;48.024;11.090;2023-05-23T14:10:58;17.70;;;11.02;;
79798;SDS011;69283;48.024;11.090;2023-05-23T14:13:24;19.17;;;11.27;;
79798;SDS011;69283;48.024;11.090;2023-05-23T14:15:49;17.87;;;10.47;;
79798;SDS011;69283;48.024;11.090;2023-05-23T14:18:15;17.92;;;11.00;;
79798;SDS011;69283;48.024;11.090;2023-05-23T14:20:41;18.60;;;10.98;;
79798;SDS011;69283;48.024;11.090;2023-05-23T14:23:06;16.77;;;10.97;;
79798;SDS011;69283;48.024;11.090;2023-05-23T14:25:31;17.57;;;10.70;;
79798;SDS011;69283;48.024;11.090;2023-05-23T14:27:56;15.07;;;9.40;;
79798;SDS011;69283;48.024;11.090;2023-05-23T14:30:22;15.03;;;10.07;;
79798;SDS011;69283;48.024;11.090;2023-05-23T14:32:47;15.53;;;10.40;;